Saronic Champion — A8XF5 — position and weather

sailwx.info

Track history (hours):
 
Tides and Currents Weather Stations Pressure Air Temp Water Temp Dewpoint Dewpoint Depression Visibility Wind Speed Wind Dir Waves Ship Positions

Saronic Champion

Last reported at 2017-Oct-20 15:30 UTC. Time now 2017-Oct-20 15:51 UTC.
Position N 54°52' E 006°54'.

Length 229 m; draft 12.9 m.

Type: Cargo ship. MMSI: 636014887.

Date/timePositionNaut miles runAvg speedWind from/ knotsBaromVisibWave heightAir tempDewpointWater temp
2017-Oct-20 15:30N 54°52' E 006°54'612.2
2017-Oct-20 15:00N 54°58' E 006°50'1212.1
2017-Oct-20 14:00N 55°09' E 006°42'612.1
2017-Oct-20 13:30N 55°15' E 006°38'611.4
2017-Oct-20 13:00N 55°20' E 006°40'612.2
2017-Oct-20 12:29N 55°26' E 006°44'712.3
2017-Oct-20 11:53N 55°33' E 006°49'18311.2
2017-Oct-19 19:31N 57°49' E 010°33'012.6
2017-Oct-19 19:30N 57°49' E 010°33'713.0
2017-Oct-19 19:00N 57°48' E 010°45'510.9
2017-Oct-19 18:30N 57°45' E 010°54'5 9.2
2017-Oct-19 17:59N 57°41' E 010°59'611.9
2017-Oct-19 17:30N 57°37' E 011°06'612.0
2017-Oct-19 17:00N 57°33' E 011°15'612.1
2017-Oct-19 16:30N 57°29' E 011°23'611.8
2017-Oct-19 16:00N 57°24' E 011°29'611.7
2017-Oct-19 15:30N 57°19' E 011°33'611.5
2017-Oct-19 15:00N 57°13' E 011°36'611.4
2017-Oct-19 14:30N 57°08' E 011°39'611.5
2017-Oct-19 14:00N 57°02' E 011°42'611.5
2017-Oct-19 13:28N 56°57' E 011°46'14210.8
2017-Oct-19 00:18N 54°38' E 010°55'312.0
2017-Oct-19 00:00N 54°36' E 011°00'612.1
2017-Oct-18 23:30N 54°35' E 011°11'612.1
2017-Oct-18 23:00N 54°33' E 011°21'612.6
2017-Oct-18 22:30N 54°30' E 011°30'1812.3
2017-Oct-18 21:02N 54°27' E 012°01'012.3
2017-Oct-18 21:00N 54°27' E 012°02'611.8
2017-Oct-18 20:30N 54°28' E 012°12'713.3
2017-Oct-18 20:00N 54°34' E 012°15'5 9.8
2017-Oct-18 19:30N 54°38' E 012°21'4 8.1
2017-Oct-18 19:00N 54°40' E 012°27'3910.7
2017-Oct-18 15:23N 54°57' E 013°28'611.8
2017-Oct-18 14:54N 54°58' E 013°37'1911.6
2017-Oct-18 13:14N 55°07' E 014°08'312.1
2017-Oct-18 12:59N 55°09' E 014°11'1011.9
2017-Oct-18 12:10N 55°16' E 014°22'211.8
2017-Oct-18 11:59N 55°18' E 014°24'611.8
2017-Oct-18 11:30N 55°22' E 014°30'611.3
2017-Oct-18 11:00N 55°27' E 014°37'611.3
2017-Oct-18 10:29N 55°29' E 014°46'511.3
2017-Oct-18 10:00N 55°32' E 014°55'611.4
2017-Oct-18 09:30N 55°35' E 015°04'611.4
2017-Oct-18 08:58N 55°37' E 015°13'511.3
2017-Oct-18 08:30N 55°39' E 015°22'611.2
2017-Oct-18 08:00N 55°40' E 015°32'611.4
2017-Oct-18 07:30N 55°41' E 015°42'611.3
2017-Oct-18 07:00N 55°43' E 015°51'611.2
2017-Oct-18 06:30N 55°44' E 016°01'611.1
2017-Oct-18 06:00N 55°46' E 016°10'510.9
2017-Oct-18 05:30N 55°47' E 016°20'510.8
2017-Oct-18 05:00N 55°48' E 016°29'610.8
2017-Oct-18 04:29N 55°50' E 016°39'510.7
2017-Oct-18 04:00N 55°51' E 016°48'26210.5
2017-Oct-17 03:09N 59°15' E 021°53'4111.9
2017-Oct-16 23:40N 59°36' E 023°05'211.9
2017-Oct-16 23:30N 59°36' E 023°08'612.0
2017-Oct-16 23:00N 59°38' E 023°20'612.1
2017-Oct-16 22:30N 59°39' E 023°31'612.2
2017-Oct-16 22:00N 59°41' E 023°43'612.0
2017-Oct-16 21:30N 59°43' E 023°54'611.8
2017-Oct-16 21:00N 59°44' E 024°05'611.8
2017-Oct-16 20:29N 59°46' E 024°17'611.7
2017-Oct-16 20:00N 59°47' E 024°28'611.5
2017-Oct-16 19:30N 59°49' E 024°39'611.4
2017-Oct-16 19:01N 59°50' E 024°50'611.5
2017-Oct-16 18:30N 59°51' E 025°01'3611.2
2017-Oct-16 15:17N 59°59' E 026°12'311.0
2017-Oct-16 15:00N 59°59' E 026°18'510.9
2017-Oct-16 14:31N 60°01' E 026°28'1110.6
2017-Oct-16 13:31N 60°00' E 026°50'611.0
2017-Oct-16 13:00N 59°59' E 027°00'510.8
2017-Oct-16 12:31N 60°02' E 027°10'611.0
2017-Oct-16 12:00N 60°04' E 027°20'611.1
2017-Oct-16 11:31N 60°07' E 027°29'511.0
2017-Oct-16 11:01N 60°10' E 027°39'510.1
2017-Oct-16 10:31N 60°12' E 027°48'611.3
2017-Oct-16 10:00N 60°10' E 027°59'611.4
2017-Oct-16 09:31N 60°09' E 028°10'611.2
2017-Oct-16 09:01N 60°06' E 028°20'611.6
2017-Oct-16 08:31N 60°04' E 028°31'4 8.6
2017-Oct-16 08:00N 60°01' E 028°37'510.4
2017-Oct-16 07:31N 59°56' E 028°33'4 8.0
2017-Oct-16 07:01N 59°52' E 028°29'510.7
2017-Oct-16 06:30N 59°47' E 028°25'4 8.7
2017-Oct-16 06:01N 59°43' E 028°25'2 4.0
2017-Oct-16 05:30N 59°41' E 028°25'0 0.0
2017-Oct-16 05:00N 59°41' E 028°25'0 0.0
2017-Oct-16 04:27N 59°41' E 028°25'0 0.0
2017-Oct-16 04:00N 59°41' E 028°25'0 0.0
2017-Oct-16 03:30N 59°41' E 028°25'0 0.0
2017-Oct-16 02:57N 59°41' E 028°25'0 0.0
2017-Oct-16 02:30N 59°41' E 028°25'0 0.0
2017-Oct-16 02:00N 59°41' E 028°25'0 0.0
2017-Oct-16 01:27N 59°41' E 028°25'0 0.0
2017-Oct-16 01:00N 59°41' E 028°25'0 0.0
2017-Oct-16 00:30N 59°41' E 028°25'0 0.0
2017-Oct-16 00:00N 59°41' E 028°25'0 0.0
2017-Oct-15 23:30N 59°41' E 028°25'0 0.0
2017-Oct-15 23:00N 59°41' E 028°25'0 0.0
2017-Oct-15 22:24N 59°41' E 028°25'0 0.0
2017-Oct-15 22:00N 59°41' E 028°25'0 0.0
2017-Oct-15 21:30N 59°41' E 028°25'0 0.0
2017-Oct-15 21:00N 59°41' E 028°25'0 0.0
2017-Oct-15 20:30N 59°41' E 028°25'0 0.0
2017-Oct-15 20:00N 59°41' E 028°25'0 0.0
2017-Oct-15 19:30N 59°41' E 028°25'0 0.0
2017-Oct-15 19:00N 59°41' E 028°25'0 0.0
2017-Oct-15 18:30N 59°41' E 028°25'0 0.0
2017-Oct-15 18:00N 59°41' E 028°25'0 0.0
2017-Oct-15 17:30N 59°41' E 028°25'0 0.0
2017-Oct-15 17:00N 59°41' E 028°25'0 0.0
2017-Oct-15 16:30N 59°41' E 028°25'0 0.0
2017-Oct-15 16:00N 59°41' E 028°25'0 0.0
2017-Oct-15 15:30N 59°41' E 028°25'0 0.0
2017-Oct-15 15:00N 59°41' E 028°25'0 0.0
2017-Oct-15 13:51N 59°41' E 028°25'0 0.0
2017-Oct-15 13:18N 59°41' E 028°25'0 0.0
2017-Oct-15 12:51N 59°41' E 028°25'0 0.0
2017-Oct-15 12:24N 59°41' E 028°25'0 0.0
2017-Oct-15 11:54N 59°41' E 028°25'0 0.0
2017-Oct-15 11:21N 59°41' E 028°25'0 0.0
2017-Oct-15 10:54N 59°41' E 028°25'0 0.0
2017-Oct-15 10:24N 59°41' E 028°25'0 0.0
2017-Oct-15 09:54N 59°41' E 028°25'0 0.0
2017-Oct-15 09:24N 59°41' E 028°25'0 0.0
2017-Oct-15 08:54N 59°41' E 028°25'0 0.0
2017-Oct-15 08:27N 59°41' E 028°25'0 0.0
2017-Oct-15 07:57N 59°41' E 028°25'0 0.0
2017-Oct-15 07:27N 59°41' E 028°25'0 0.0
2017-Oct-15 06:57N 59°41' E 028°25'0 0.0
2017-Oct-15 06:30N 59°41' E 028°25'0 0.0
2017-Oct-15 06:00N 59°41' E 028°25'0 0.0
2017-Oct-15 05:30N 59°41' E 028°25'0 0.0
2017-Oct-15 05:00N 59°41' E 028°25'0 0.0
2017-Oct-15 04:30N 59°41' E 028°25'0 0.0
2017-Oct-15 04:00N 59°41' E 028°25'0 0.0
2017-Oct-15 03:30N 59°41' E 028°25'0 0.0
2017-Oct-15 03:00N 59°41' E 028°25'0 0.0
2017-Oct-15 02:30N 59°41' E 028°25'0 0.0
2017-Oct-15 02:00N 59°41' E 028°25'0 0.0
2017-Oct-15 01:30N 59°41' E 028°25'0 0.0
2017-Oct-15 01:00N 59°41' E 028°25'0 0.0
2017-Oct-15 00:30N 59°41' E 028°25'0 0.0
2017-Oct-15 00:00N 59°41' E 028°25'0 0.0
2017-Oct-14 23:30N 59°41' E 028°25'0 0.0
2017-Oct-14 22:51N 59°41' E 028°25'0 0.0
2017-Oct-14 22:18N 59°41' E 028°25'0 0.0
2017-Oct-14 21:48N 59°41' E 028°25'0 0.0
2017-Oct-14 21:24N 59°41' E 028°25'0 0.0
2017-Oct-14 20:54N 59°41' E 028°25'0 0.0
2017-Oct-14 20:24N 59°41' E 028°25'0 0.0
2017-Oct-14 19:51N 59°41' E 028°25'0 0.0
2017-Oct-14 19:24N 59°41' E 028°25'0 0.0
2017-Oct-14 18:54N 59°41' E 028°25'0 0.0
2017-Oct-14 18:27N 59°41' E 028°25'0 0.0
2017-Oct-14 17:57N 59°41' E 028°25'0 0.0
2017-Oct-14 17:27N 59°41' E 028°25'0 0.0
2017-Oct-14 16:57N 59°41' E 028°25'0 0.0
2017-Oct-14 16:27N 59°41' E 028°25'0 0.0
2017-Oct-14 16:00N 59°41' E 028°25'0 0.0
2017-Oct-14 15:30N 59°41' E 028°25'0 0.0
2017-Oct-14 15:00N 59°41' E 028°25'0 0.0
2017-Oct-14 14:30N 59°41' E 028°25'0 0.0
2017-Oct-14 13:57N 59°41' E 028°25'0 0.0
2017-Oct-14 13:30N 59°41' E 028°25'0 0.0
2017-Oct-14 12:57N 59°41' E 028°25'0 0.0
2017-Oct-14 12:30N 59°41' E 028°25'0 0.0
2017-Oct-14 12:00N 59°41' E 028°25'0 0.0
2017-Oct-14 11:30N 59°41' E 028°25'0 0.0
2017-Oct-14 11:00N 59°41' E 028°25'0 0.0
2017-Oct-14 10:30N 59°41' E 028°25'0 0.0
2017-Oct-14 10:00N 59°41' E 028°25'0 0.0
2017-Oct-14 09:30N 59°41' E 028°25'0 0.0
2017-Oct-14 09:00N 59°41' E 028°25'0 0.0
2017-Oct-14 08:30N 59°41' E 028°25'0 0.0
2017-Oct-14 07:51N 59°41' E 028°25'0 0.0
2017-Oct-14 07:21N 59°41' E 028°25'0 0.0
2017-Oct-14 07:00N 59°41' E 028°25'0 0.9
2017-Oct-14 06:30N 59°41' E 028°25'3 5.1
2017-Oct-14 06:00N 59°44' E 028°23'510.3
2017-Oct-14 05:30N 59°49' E 028°25'612.6
2017-Oct-14 05:01N 59°54' E 028°32'3 5.9
2017-Oct-14 04:30N 59°55' E 028°38'0 0.1
2017-Oct-14 03:59N 59°55' E 028°38'0 0.0
2017-Oct-14 03:29N 59°55' E 028°38'0 0.0
2017-Oct-14 02:59N 59°55' E 028°38'0 0.0
2017-Oct-14 02:29N 59°55' E 028°38'0 0.0
2017-Oct-14 01:59N 59°55' E 028°38'0 0.0
2017-Oct-14 01:29N 59°55' E 028°38'0 0.0
2017-Oct-14 00:59N 59°55' E 028°38'0 0.0
2017-Oct-14 00:29N 59°55' E 028°38'0 0.1
2017-Oct-13 23:59N 59°55' E 028°38'0 0.0
2017-Oct-13 23:29N 59°55' E 028°38'0 0.0
2017-Oct-13 22:59N 59°55' E 028°38'0 0.0
2017-Oct-13 22:26N 59°55' E 028°38'0 0.0
2017-Oct-13 21:53N 59°55' E 028°38'0 0.0
2017-Oct-13 21:29N 59°55' E 028°38'0 0.0
2017-Oct-13 20:56N 59°55' E 028°38'0 0.0
2017-Oct-13 20:26N 59°55' E 028°38'0 0.0
2017-Oct-13 19:56N 59°55' E 028°38'0 0.0
2017-Oct-13 19:23N 59°55' E 028°38'0 0.0
2017-Oct-13 18:50N 59°55' E 028°38'0 0.0
2017-Oct-13 18:26N 59°55' E 028°38'0 0.0
2017-Oct-13 17:56N 59°55' E 028°38'0 0.0
2017-Oct-13 17:29N 59°55' E 028°38'0 0.0
2017-Oct-13 16:59N 59°55' E 028°38'0 0.0
2017-Oct-13 16:29N 59°55' E 028°38'0 0.0
2017-Oct-13 15:59N 59°55' E 028°38'0 0.0
2017-Oct-13 15:29N 59°55' E 028°38'0 0.0
2017-Oct-13 14:56N 59°55' E 028°38'0 0.1
2017-Oct-13 14:29N 59°55' E 028°38'0 0.0
2017-Oct-13 13:59N 59°55' E 028°38'0 0.0
2017-Oct-13 13:29N 59°55' E 028°38'0 0.0
2017-Oct-13 12:59N 59°55' E 028°38'0 0.0
2017-Oct-13 12:29N 59°55' E 028°38'0 0.0
2017-Oct-13 11:59N 59°55' E 028°38'0 0.0
2017-Oct-13 11:29N 59°55' E 028°38'0 0.0
2017-Oct-13 10:59N 59°55' E 028°38'0 0.0
2017-Oct-13 10:29N 59°55' E 028°38'0 0.0
2017-Oct-13 09:59N 59°55' E 028°38'0 0.0
2017-Oct-13 09:29N 59°55' E 028°38'0 0.0
2017-Oct-13 08:35N 59°55' E 028°38'0 0.0
2017-Oct-13 08:29N 59°55' E 028°38'0 0.0
2017-Oct-13 07:35N 59°55' E 028°38'0 0.0
2017-Oct-13 07:20N 59°55' E 028°38'0 0.0
2017-Oct-13 06:50N 59°55' E 028°38'0 0.0
2017-Oct-13 06:08N 59°55' E 028°38'0 0.0
2017-Oct-13 05:53N 59°55' E 028°38'0 0.0
2017-Oct-13 05:20N 59°55' E 028°38'0 0.0
2017-Oct-13 04:56N 59°55' E 028°38'0 0.0
2017-Oct-13 04:26N 59°55' E 028°38'0 0.0
2017-Oct-13 03:56N 59°55' E 028°38'0 0.0
2017-Oct-13 03:26N 59°55' E 028°38'0 0.0
2017-Oct-13 02:56N 59°55' E 028°38'0 0.0
2017-Oct-13 02:23N 59°55' E 028°38'0 0.0
2017-Oct-13 01:56N 59°55' E 028°38'0 0.0
2017-Oct-13 01:26N 59°55' E 028°38'0 0.0
2017-Oct-13 00:59N 59°55' E 028°38'0 0.0
2017-Oct-13 00:29N 59°55' E 028°38'0 0.0
2017-Oct-12 23:59N 59°55' E 028°38'0 0.0
2017-Oct-12 23:29N 59°55' E 028°38'0 0.0
2017-Oct-12 22:59N 59°55' E 028°38'0 0.0
2017-Oct-12 22:26N 59°55' E 028°38'0 0.0
2017-Oct-12 21:59N 59°55' E 028°38'0 0.0
2017-Oct-12 21:26N 59°55' E 028°38'0 0.0
2017-Oct-12 20:59N 59°55' E 028°38'0 0.0
2017-Oct-12 20:29N 59°55' E 028°38'0 0.0
2017-Oct-12 19:59N 59°55' E 028°38'0 0.0
2017-Oct-12 19:29N 59°55' E 028°38'0 0.0
2017-Oct-12 18:47N 59°55' E 028°38'0 0.0
2017-Oct-12 18:29N 59°55' E 028°38'0 0.0
2017-Oct-12 17:50N 59°55' E 028°38'0 0.0
2017-Oct-12 17:29N 59°55' E 028°38'0 0.0
2017-Oct-12 16:50N 59°55' E 028°38'0 0.0
2017-Oct-12 16:23N 59°55' E 028°38'0 0.0
2017-Oct-12 15:53N 59°55' E 028°38'0 0.0
2017-Oct-12 15:23N 59°55' E 028°38'0 0.0
2017-Oct-12 14:53N 59°55' E 028°38'0 0.0
2017-Oct-12 14:23N 59°55' E 028°38'0 0.0
2017-Oct-12 13:53N 59°55' E 028°38'0 0.0
2017-Oct-12 13:23N 59°55' E 028°38'0 0.0
2017-Oct-12 12:56N 59°55' E 028°38'0 0.1
2017-Oct-12 12:26N 59°55' E 028°38'0 0.0
2017-Oct-12 11:53N 59°55' E 028°38'0 0.0
2017-Oct-12 11:26N 59°55' E 028°38'0 0.0
2017-Oct-12 10:56N 59°55' E 028°38'0 0.0
2017-Oct-12 10:26N 59°55' E 028°38'0 0.1
2017-Oct-12 09:59N 59°55' E 028°38'0 0.1
2017-Oct-12 09:29N 59°55' E 028°38'0 0.1
2017-Oct-12 08:59N 59°55' E 028°38'0 0.0
2017-Oct-12 08:29N 59°55' E 028°38'0 0.0
2017-Oct-12 07:59N 59°55' E 028°38'0 0.0
2017-Oct-12 07:29N 59°55' E 028°38'0 0.0
2017-Oct-12 06:56N 59°55' E 028°38'0 0.0
2017-Oct-12 06:29N 59°55' E 028°38'0 0.0
2017-Oct-12 05:59N 59°55' E 028°38'0 0.0
2017-Oct-12 05:17N 59°55' E 028°38'0 0.0
2017-Oct-12 04:59N 59°55' E 028°38'0 0.1
2017-Oct-12 04:30N 59°55' E 028°38'0 0.0
2017-Oct-12 03:59N 59°55' E 028°38'0 0.0
2017-Oct-12 03:29N 59°55' E 028°38'0 0.1
2017-Oct-12 02:59N 59°55' E 028°38'0 0.0
2017-Oct-12 02:29N 59°55' E 028°38'0 0.0
2017-Oct-12 01:59N 59°55' E 028°38'0 0.0
2017-Oct-12 01:29N 59°55' E 028°38'0 0.0
2017-Oct-12 00:59N 59°55' E 028°38'0 0.0
2017-Oct-12 00:29N 59°55' E 028°38'0 0.0
2017-Oct-11 23:59N 59°55' E 028°38'0 0.0
2017-Oct-11 23:23N 59°55' E 028°38'0 0.0
2017-Oct-11 22:59N 59°55' E 028°38'0 0.0
2017-Oct-11 22:23N 59°55' E 028°38'0 0.0
2017-Oct-11 21:59N 59°55' E 028°38'0 0.1
2017-Oct-11 21:29N 59°55' E 028°38'0 0.0
2017-Oct-11 20:58N 59°55' E 028°38'0 0.0
2017-Oct-11 20:26N 59°55' E 028°38'0 0.0
2017-Oct-11 19:57N 59°55' E 028°38'0 0.0
2017-Oct-11 19:29N 59°55' E 028°38'0 0.0
2017-Oct-11 18:59N 59°55' E 028°38'0 0.0
2017-Oct-11 18:05N 59°55' E 028°38'0 0.1
2017-Oct-11 17:59N 59°55' E 028°38'0 0.0
2017-Oct-11 17:29N 59°55' E 028°38'0 0.0
2017-Oct-11 16:59N 59°55' E 028°38'0 0.0
2017-Oct-10 23:59N 59°55' E 028°38'0 0.0
2017-Oct-10 23:26N 59°55' E 028°38'0 0.0
2017-Oct-10 22:59N 59°55' E 028°38'0 0.0
2017-Oct-10 22:29N 59°55' E 028°38'0 0.0
2017-Oct-10 21:59N 59°55' E 028°38'0 0.0
2017-Oct-10 21:29N 59°55' E 028°38'0 0.0
2017-Oct-10 20:47N 59°55' E 028°38'0 0.0
2017-Oct-10 20:20N 59°55' E 028°38'0 0.0
2017-Oct-10 19:50N 59°55' E 028°38'0 0.0
2017-Oct-10 19:20N 59°55' E 028°38'0 0.0
2017-Oct-10 18:53N 59°55' E 028°38'0 0.0
2017-Oct-10 18:23N 59°55' E 028°38'0 0.0
2017-Oct-10 17:50N 59°55' E 028°38'0 0.0
2017-Oct-10 17:08N 59°55' E 028°38'0 0.0
2017-Oct-10 16:53N 59°55' E 028°38'0 0.0
2017-Oct-10 16:23N 59°55' E 028°38'0 0.0
2017-Oct-10 15:56N 59°55' E 028°38'  
Track history (hours):
 
Tides and Currents Weather Stations Pressure Air Temp Water Temp Dewpoint Dewpoint Depression Visibility Wind Speed Wind Dir Waves Ship Positions

Saronic Champion

Last reported at 2017-Oct-20 15:30 UTC. Time now 2017-Oct-20 15:51 UTC.
Position N 54°52' E 006°54'.

Length 229 m; draft 12.9 m.

Type: Cargo ship. MMSI: 636014887.

Date/timePositionNaut miles runAvg speedWind from/ knotsBaromVisibWave heightAir tempDewpointWater temp
2017-Oct-20 15:30N 54°52' E 006°54'612.2
2017-Oct-20 15:00N 54°58' E 006°50'1212.1
2017-Oct-20 14:00N 55°09' E 006°42'612.1
2017-Oct-20 13:30N 55°15' E 006°38'611.4
2017-Oct-20 13:00N 55°20' E 006°40'612.2
2017-Oct-20 12:29N 55°26' E 006°44'712.3
2017-Oct-20 11:53N 55°33' E 006°49'18311.2
2017-Oct-19 19:31N 57°49' E 010°33'012.6
2017-Oct-19 19:30N 57°49' E 010°33'713.0
2017-Oct-19 19:00N 57°48' E 010°45'510.9
2017-Oct-19 18:30N 57°45' E 010°54'5 9.2
2017-Oct-19 17:59N 57°41' E 010°59'611.9
2017-Oct-19 17:30N 57°37' E 011°06'612.0
2017-Oct-19 17:00N 57°33' E 011°15'612.1
2017-Oct-19 16:30N 57°29' E 011°23'611.8
2017-Oct-19 16:00N 57°24' E 011°29'611.7
2017-Oct-19 15:30N 57°19' E 011°33'611.5
2017-Oct-19 15:00N 57°13' E 011°36'611.4
2017-Oct-19 14:30N 57°08' E 011°39'611.5
2017-Oct-19 14:00N 57°02' E 011°42'611.5
2017-Oct-19 13:28N 56°57' E 011°46'14210.8
2017-Oct-19 00:18N 54°38' E 010°55'312.0
2017-Oct-19 00:00N 54°36' E 011°00'612.1
2017-Oct-18 23:30N 54°35' E 011°11'612.1
2017-Oct-18 23:00N 54°33' E 011°21'612.6
2017-Oct-18 22:30N 54°30' E 011°30'1812.3
2017-Oct-18 21:02N 54°27' E 012°01'012.3
2017-Oct-18 21:00N 54°27' E 012°02'611.8
2017-Oct-18 20:30N 54°28' E 012°12'713.3
2017-Oct-18 20:00N 54°34' E 012°15'5 9.8
2017-Oct-18 19:30N 54°38' E 012°21'4 8.1
2017-Oct-18 19:00N 54°40' E 012°27'3910.7
2017-Oct-18 15:23N 54°57' E 013°28'611.8
2017-Oct-18 14:54N 54°58' E 013°37'1911.6
2017-Oct-18 13:14N 55°07' E 014°08'312.1
2017-Oct-18 12:59N 55°09' E 014°11'1011.9
2017-Oct-18 12:10N 55°16' E 014°22'211.8
2017-Oct-18 11:59N 55°18' E 014°24'611.8
2017-Oct-18 11:30N 55°22' E 014°30'611.3
2017-Oct-18 11:00N 55°27' E 014°37'611.3
2017-Oct-18 10:29N 55°29' E 014°46'511.3
2017-Oct-18 10:00N 55°32' E 014°55'611.4
2017-Oct-18 09:30N 55°35' E 015°04'611.4
2017-Oct-18 08:58N 55°37' E 015°13'511.3
2017-Oct-18 08:30N 55°39' E 015°22'611.2
2017-Oct-18 08:00N 55°40' E 015°32'611.4
2017-Oct-18 07:30N 55°41' E 015°42'611.3
2017-Oct-18 07:00N 55°43' E 015°51'611.2
2017-Oct-18 06:30N 55°44' E 016°01'611.1
2017-Oct-18 06:00N 55°46' E 016°10'510.9
2017-Oct-18 05:30N 55°47' E 016°20'510.8
2017-Oct-18 05:00N 55°48' E 016°29'610.8
2017-Oct-18 04:29N 55°50' E 016°39'510.7
2017-Oct-18 04:00N 55°51' E 016°48'26210.5
2017-Oct-17 03:09N 59°15' E 021°53'4111.9
2017-Oct-16 23:40N 59°36' E 023°05'211.9
2017-Oct-16 23:30N 59°36' E 023°08'612.0
2017-Oct-16 23:00N 59°38' E 023°20'612.1
2017-Oct-16 22:30N 59°39' E 023°31'612.2
2017-Oct-16 22:00N 59°41' E 023°43'612.0
2017-Oct-16 21:30N 59°43' E 023°54'611.8
2017-Oct-16 21:00N 59°44' E 024°05'611.8
2017-Oct-16 20:29N 59°46' E 024°17'611.7
2017-Oct-16 20:00N 59°47' E 024°28'611.5
2017-Oct-16 19:30N 59°49' E 024°39'611.4
2017-Oct-16 19:01N 59°50' E 024°50'611.5
2017-Oct-16 18:30N 59°51' E 025°01'3611.2
2017-Oct-16 15:17N 59°59' E 026°12'311.0
2017-Oct-16 15:00N 59°59' E 026°18'510.9
2017-Oct-16 14:31N 60°01' E 026°28'1110.6
2017-Oct-16 13:31N 60°00' E 026°50'611.0
2017-Oct-16 13:00N 59°59' E 027°00'510.8
2017-Oct-16 12:31N 60°02' E 027°10'611.0
2017-Oct-16 12:00N 60°04' E 027°20'611.1
2017-Oct-16 11:31N 60°07' E 027°29'511.0
2017-Oct-16 11:01N 60°10' E 027°39'510.1
2017-Oct-16 10:31N 60°12' E 027°48'611.3
2017-Oct-16 10:00N 60°10' E 027°59'611.4
2017-Oct-16 09:31N 60°09' E 028°10'611.2
2017-Oct-16 09:01N 60°06' E 028°20'611.6
2017-Oct-16 08:31N 60°04' E 028°31'4 8.6
2017-Oct-16 08:00N 60°01' E 028°37'510.4
2017-Oct-16 07:31N 59°56' E 028°33'4 8.0
2017-Oct-16 07:01N 59°52' E 028°29'510.7
2017-Oct-16 06:30N 59°47' E 028°25'4 8.7
2017-Oct-16 06:01N 59°43' E 028°25'2 4.0
2017-Oct-16 05:30N 59°41' E 028°25'0 0.0
2017-Oct-16 05:00N 59°41' E 028°25'0 0.0
2017-Oct-16 04:27N 59°41' E 028°25'0 0.0
2017-Oct-16 04:00N 59°41' E 028°25'0 0.0
2017-Oct-16 03:30N 59°41' E 028°25'0 0.0
2017-Oct-16 02:57N 59°41' E 028°25'0 0.0
2017-Oct-16 02:30N 59°41' E 028°25'0 0.0
2017-Oct-16 02:00N 59°41' E 028°25'0 0.0
2017-Oct-16 01:27N 59°41' E 028°25'0 0.0
2017-Oct-16 01:00N 59°41' E 028°25'0 0.0
2017-Oct-16 00:30N 59°41' E 028°25'0 0.0
2017-Oct-16 00:00N 59°41' E 028°25'0 0.0
2017-Oct-15 23:30N 59°41' E 028°25'0 0.0
2017-Oct-15 23:00N 59°41' E 028°25'0 0.0
2017-Oct-15 22:24N 59°41' E 028°25'0 0.0
2017-Oct-15 22:00N 59°41' E 028°25'0 0.0
2017-Oct-15 21:30N 59°41' E 028°25'0 0.0
2017-Oct-15 21:00N 59°41' E 028°25'0 0.0
2017-Oct-15 20:30N 59°41' E 028°25'0 0.0
2017-Oct-15 20:00N 59°41' E 028°25'0 0.0
2017-Oct-15 19:30N 59°41' E 028°25'0 0.0
2017-Oct-15 19:00N 59°41' E 028°25'0 0.0
2017-Oct-15 18:30N 59°41' E 028°25'0 0.0
2017-Oct-15 18:00N 59°41' E 028°25'0 0.0
2017-Oct-15 17:30N 59°41' E 028°25'0 0.0
2017-Oct-15 17:00N 59°41' E 028°25'0 0.0
2017-Oct-15 16:30N 59°41' E 028°25'0 0.0
2017-Oct-15 16:00N 59°41' E 028°25'0 0.0
2017-Oct-15 15:30N 59°41' E 028°25'0 0.0
2017-Oct-15 15:00N 59°41' E 028°25'0 0.0
2017-Oct-15 13:51N 59°41' E 028°25'0 0.0
2017-Oct-15 13:18N 59°41' E 028°25'0 0.0
2017-Oct-15 12:51N 59°41' E 028°25'0 0.0
2017-Oct-15 12:24N 59°41' E 028°25'0 0.0
2017-Oct-15 11:54N 59°41' E 028°25'0 0.0
2017-Oct-15 11:21N 59°41' E 028°25'0 0.0
2017-Oct-15 10:54N 59°41' E 028°25'0 0.0
2017-Oct-15 10:24N 59°41' E 028°25'0 0.0
2017-Oct-15 09:54N 59°41' E 028°25'0 0.0
2017-Oct-15 09:24N 59°41' E 028°25'0 0.0
2017-Oct-15 08:54N 59°41' E 028°25'0 0.0
2017-Oct-15 08:27N 59°41' E 028°25'0 0.0
2017-Oct-15 07:57N 59°41' E 028°25'0 0.0
2017-Oct-15 07:27N 59°41' E 028°25'0 0.0
2017-Oct-15 06:57N 59°41' E 028°25'0 0.0
2017-Oct-15 06:30N 59°41' E 028°25'0 0.0
2017-Oct-15 06:00N 59°41' E 028°25'0 0.0
2017-Oct-15 05:30N 59°41' E 028°25'0 0.0
2017-Oct-15 05:00N 59°41' E 028°25'0 0.0
2017-Oct-15 04:30N 59°41' E 028°25'0 0.0
2017-Oct-15 04:00N 59°41' E 028°25'0 0.0
2017-Oct-15 03:30N 59°41' E 028°25'0 0.0
2017-Oct-15 03:00N 59°41' E 028°25'0 0.0
2017-Oct-15 02:30N 59°41' E 028°25'0 0.0
2017-Oct-15 02:00N 59°41' E 028°25'0 0.0
2017-Oct-15 01:30N 59°41' E 028°25'0 0.0
2017-Oct-15 01:00N 59°41' E 028°25'0 0.0
2017-Oct-15 00:30N 59°41' E 028°25'0 0.0
2017-Oct-15 00:00N 59°41' E 028°25'0 0.0
2017-Oct-14 23:30N 59°41' E 028°25'0 0.0
2017-Oct-14 22:51N 59°41' E 028°25'0 0.0
2017-Oct-14 22:18N 59°41' E 028°25'0 0.0
2017-Oct-14 21:48N 59°41' E 028°25'0 0.0
2017-Oct-14 21:24N 59°41' E 028°25'0 0.0
2017-Oct-14 20:54N 59°41' E 028°25'0 0.0
2017-Oct-14 20:24N 59°41' E 028°25'0 0.0
2017-Oct-14 19:51N 59°41' E 028°25'0 0.0
2017-Oct-14 19:24N 59°41' E 028°25'0 0.0
2017-Oct-14 18:54N 59°41' E 028°25'0 0.0
2017-Oct-14 18:27N 59°41' E 028°25'0 0.0
2017-Oct-14 17:57N 59°41' E 028°25'0 0.0
2017-Oct-14 17:27N 59°41' E 028°25'0 0.0
2017-Oct-14 16:57N 59°41' E 028°25'0 0.0
2017-Oct-14 16:27N 59°41' E 028°25'0 0.0
2017-Oct-14 16:00N 59°41' E 028°25'0 0.0
2017-Oct-14 15:30N 59°41' E 028°25'0 0.0
2017-Oct-14 15:00N 59°41' E 028°25'0 0.0
2017-Oct-14 14:30N 59°41' E 028°25'0 0.0
2017-Oct-14 13:57N 59°41' E 028°25'0 0.0
2017-Oct-14 13:30N 59°41' E 028°25'0 0.0
2017-Oct-14 12:57N 59°41' E 028°25'0 0.0
2017-Oct-14 12:30N 59°41' E 028°25'0 0.0
2017-Oct-14 12:00N 59°41' E 028°25'0 0.0
2017-Oct-14 11:30N 59°41' E 028°25'0 0.0
2017-Oct-14 11:00N 59°41' E 028°25'0 0.0
2017-Oct-14 10:30N 59°41' E 028°25'0 0.0
2017-Oct-14 10:00N 59°41' E 028°25'0 0.0
2017-Oct-14 09:30N 59°41' E 028°25'0 0.0
2017-Oct-14 09:00N 59°41' E 028°25'0 0.0
2017-Oct-14 08:30N 59°41' E 028°25'0 0.0
2017-Oct-14 07:51N 59°41' E 028°25'0 0.0
2017-Oct-14 07:21N 59°41' E 028°25'0 0.0
2017-Oct-14 07:00N 59°41' E 028°25'0 0.9
2017-Oct-14 06:30N 59°41' E 028°25'3 5.1
2017-Oct-14 06:00N 59°44' E 028°23'510.3
2017-Oct-14 05:30N 59°49' E 028°25'612.6
2017-Oct-14 05:01N 59°54' E 028°32'3 5.9
2017-Oct-14 04:30N 59°55' E 028°38'0 0.1
2017-Oct-14 03:59N 59°55' E 028°38'0 0.0
2017-Oct-14 03:29N 59°55' E 028°38'0 0.0
2017-Oct-14 02:59N 59°55' E 028°38'0 0.0
2017-Oct-14 02:29N 59°55' E 028°38'0 0.0
2017-Oct-14 01:59N 59°55' E 028°38'0 0.0
2017-Oct-14 01:29N 59°55' E 028°38'0 0.0
2017-Oct-14 00:59N 59°55' E 028°38'0 0.0
2017-Oct-14 00:29N 59°55' E 028°38'0 0.1
2017-Oct-13 23:59N 59°55' E 028°38'0 0.0
2017-Oct-13 23:29N 59°55' E 028°38'0 0.0
2017-Oct-13 22:59N 59°55' E 028°38'0 0.0
2017-Oct-13 22:26N 59°55' E 028°38'0 0.0
2017-Oct-13 21:53N 59°55' E 028°38'0 0.0
2017-Oct-13 21:29N 59°55' E 028°38'0 0.0
2017-Oct-13 20:56N 59°55' E 028°38'0 0.0
2017-Oct-13 20:26N 59°55' E 028°38'0 0.0
2017-Oct-13 19:56N 59°55' E 028°38'0 0.0
2017-Oct-13 19:23N 59°55' E 028°38'0 0.0
2017-Oct-13 18:50N 59°55' E 028°38'0 0.0
2017-Oct-13 18:26N 59°55' E 028°38'0 0.0
2017-Oct-13 17:56N 59°55' E 028°38'0 0.0
2017-Oct-13 17:29N 59°55' E 028°38'0 0.0
2017-Oct-13 16:59N 59°55' E 028°38'0 0.0
2017-Oct-13 16:29N 59°55' E 028°38'0 0.0
2017-Oct-13 15:59N 59°55' E 028°38'0 0.0
2017-Oct-13 15:29N 59°55' E 028°38'0 0.0
2017-Oct-13 14:56N 59°55' E 028°38'0 0.1
2017-Oct-13 14:29N 59°55' E 028°38'0 0.0
2017-Oct-13 13:59N 59°55' E 028°38'0 0.0
2017-Oct-13 13:29N 59°55' E 028°38'0 0.0
2017-Oct-13 12:59N 59°55' E 028°38'0 0.0
2017-Oct-13 12:29N 59°55' E 028°38'0 0.0
2017-Oct-13 11:59N 59°55' E 028°38'0 0.0
2017-Oct-13 11:29N 59°55' E 028°38'0 0.0
2017-Oct-13 10:59N 59°55' E 028°38'0 0.0
2017-Oct-13 10:29N 59°55' E 028°38'0 0.0
2017-Oct-13 09:59N 59°55' E 028°38'0 0.0
2017-Oct-13 09:29N 59°55' E 028°38'0 0.0
2017-Oct-13 08:35N 59°55' E 028°38'0 0.0
2017-Oct-13 08:29N 59°55' E 028°38'0 0.0
2017-Oct-13 07:35N 59°55' E 028°38'0 0.0
2017-Oct-13 07:20N 59°55' E 028°38'0 0.0
2017-Oct-13 06:50N 59°55' E 028°38'0 0.0
2017-Oct-13 06:08N 59°55' E 028°38'0 0.0
2017-Oct-13 05:53N 59°55' E 028°38'0 0.0
2017-Oct-13 05:20N 59°55' E 028°38'0 0.0
2017-Oct-13 04:56N 59°55' E 028°38'0 0.0
2017-Oct-13 04:26N 59°55' E 028°38'0 0.0
2017-Oct-13 03:56N 59°55' E 028°38'0 0.0
2017-Oct-13 03:26N 59°55' E 028°38'0 0.0
2017-Oct-13 02:56N 59°55' E 028°38'0 0.0
2017-Oct-13 02:23N 59°55' E 028°38'0 0.0
2017-Oct-13 01:56N 59°55' E 028°38'0 0.0
2017-Oct-13 01:26N 59°55' E 028°38'0 0.0
2017-Oct-13 00:59N 59°55' E 028°38'0 0.0
2017-Oct-13 00:29N 59°55' E 028°38'0 0.0
2017-Oct-12 23:59N 59°55' E 028°38'0 0.0
2017-Oct-12 23:29N 59°55' E 028°38'0 0.0
2017-Oct-12 22:59N 59°55' E 028°38'0 0.0
2017-Oct-12 22:26N 59°55' E 028°38'0 0.0
2017-Oct-12 21:59N 59°55' E 028°38'0 0.0
2017-Oct-12 21:26N 59°55' E 028°38'0 0.0
2017-Oct-12 20:59N 59°55' E 028°38'0 0.0
2017-Oct-12 20:29N 59°55' E 028°38'0 0.0
2017-Oct-12 19:59N 59°55' E 028°38'0 0.0
2017-Oct-12 19:29N 59°55' E 028°38'0 0.0
2017-Oct-12 18:47N 59°55' E 028°38'0 0.0
2017-Oct-12 18:29N 59°55' E 028°38'0 0.0
2017-Oct-12 17:50N 59°55' E 028°38'0 0.0
2017-Oct-12 17:29N 59°55' E 028°38'0 0.0
2017-Oct-12 16:50N 59°55' E 028°38'0 0.0
2017-Oct-12 16:23N 59°55' E 028°38'0 0.0
2017-Oct-12 15:53N 59°55' E 028°38'0 0.0
2017-Oct-12 15:23N 59°55' E 028°38'0 0.0
2017-Oct-12 14:53N 59°55' E 028°38'0 0.0
2017-Oct-12 14:23N 59°55' E 028°38'0 0.0
2017-Oct-12 13:53N 59°55' E 028°38'0 0.0
2017-Oct-12 13:23N 59°55' E 028°38'0 0.0
2017-Oct-12 12:56N 59°55' E 028°38'0 0.1
2017-Oct-12 12:26N 59°55' E 028°38'0 0.0
2017-Oct-12 11:53N 59°55' E 028°38'0 0.0
2017-Oct-12 11:26N 59°55' E 028°38'0 0.0
2017-Oct-12 10:56N 59°55' E 028°38'0 0.0
2017-Oct-12 10:26N 59°55' E 028°38'0 0.1
2017-Oct-12 09:59N 59°55' E 028°38'0 0.1
2017-Oct-12 09:29N 59°55' E 028°38'0 0.1
2017-Oct-12 08:59N 59°55' E 028°38'0 0.0
2017-Oct-12 08:29N 59°55' E 028°38'0 0.0
2017-Oct-12 07:59N 59°55' E 028°38'0 0.0
2017-Oct-12 07:29N 59°55' E 028°38'0 0.0
2017-Oct-12 06:56N 59°55' E 028°38'0 0.0
2017-Oct-12 06:29N 59°55' E 028°38'0 0.0
2017-Oct-12 05:59N 59°55' E 028°38'0 0.0
2017-Oct-12 05:17N 59°55' E 028°38'0 0.0
2017-Oct-12 04:59N 59°55' E 028°38'0 0.1
2017-Oct-12 04:30N 59°55' E 028°38'0 0.0
2017-Oct-12 03:59N 59°55' E 028°38'0 0.0
2017-Oct-12 03:29N 59°55' E 028°38'0 0.1
2017-Oct-12 02:59N 59°55' E 028°38'0 0.0
2017-Oct-12 02:29N 59°55' E 028°38'0 0.0
2017-Oct-12 01:59N 59°55' E 028°38'0 0.0
2017-Oct-12 01:29N 59°55' E 028°38'0 0.0
2017-Oct-12 00:59N 59°55' E 028°38'0 0.0
2017-Oct-12 00:29N 59°55' E 028°38'0 0.0
2017-Oct-11 23:59N 59°55' E 028°38'0 0.0
2017-Oct-11 23:23N 59°55' E 028°38'0 0.0
2017-Oct-11 22:59N 59°55' E 028°38'0 0.0
2017-Oct-11 22:23N 59°55' E 028°38'0 0.0
2017-Oct-11 21:59N 59°55' E 028°38'0 0.1
2017-Oct-11 21:29N 59°55' E 028°38'0 0.0
2017-Oct-11 20:58N 59°55' E 028°38'0 0.0
2017-Oct-11 20:26N 59°55' E 028°38'0 0.0
2017-Oct-11 19:57N 59°55' E 028°38'0 0.0
2017-Oct-11 19:29N 59°55' E 028°38'0 0.0
2017-Oct-11 18:59N 59°55' E 028°38'0 0.0
2017-Oct-11 18:05N 59°55' E 028°38'0 0.1
2017-Oct-11 17:59N 59°55' E 028°38'0 0.0
2017-Oct-11 17:29N 59°55' E 028°38'0 0.0
2017-Oct-11 16:59N 59°55' E 028°38'0 0.0
2017-Oct-10 23:59N 59°55' E 028°38'0 0.0
2017-Oct-10 23:26N 59°55' E 028°38'0 0.0
2017-Oct-10 22:59N 59°55' E 028°38'0 0.0
2017-Oct-10 22:29N 59°55' E 028°38'0 0.0
2017-Oct-10 21:59N 59°55' E 028°38'0 0.0
2017-Oct-10 21:29N 59°55' E 028°38'0 0.0
2017-Oct-10 20:47N 59°55' E 028°38'0 0.0
2017-Oct-10 20:20N 59°55' E 028°38'0 0.0
2017-Oct-10 19:50N 59°55' E 028°38'0 0.0
2017-Oct-10 19:20N 59°55' E 028°38'0 0.0
2017-Oct-10 18:53N 59°55' E 028°38'0 0.0
2017-Oct-10 18:23N 59°55' E 028°38'0 0.0
2017-Oct-10 17:50N 59°55' E 028°38'0 0.0
2017-Oct-10 17:08N 59°55' E 028°38'0 0.0
2017-Oct-10 16:53N 59°55' E 028°38'0 0.0
2017-Oct-10 16:23N 59°55' E 028°38'0 0.0
2017-Oct-10 15:56N 59°55' E 028°38'  

Dump ship's entire track history